CCA1429 ZBAA-ZUCK
Flight info
| Callsign | CCA1429 |
|---|---|
| Flight time | N/A |
| Altitude | 32100 |
| Route | BOTP7X/36R BOTPU W47 LOVRA W276 AVDIG W666 VINEX VINXD2 |
| Aircraft | A320/M-SDE3FGHIRWY/LB1 |
Departure
| Time | N/A |
|---|---|
| Airport | Beijing Capital International Airport (ZBAA) |
Arrival
| Time | 2026-05-07 13:09 |
|---|---|
| Airport | Chongqing Jiangbei International Airport (ZUCK) |
| Time | Latitude | Longitude | Altitude | Speed | Heading |
|---|---|---|---|---|---|
| 2026-05-07 12:14 | 34.28066 | 108.45525 | 32338 ft | 442 kts | 207° |
| 2026-05-07 12:14 | 34.22277 | 108.43044 | 32341 ft | 441 kts | 207° |
| 2026-05-07 12:15 | 34.16510 | 108.40579 | 32374 ft | 440 kts | 207° |
| 2026-05-07 12:15 | 34.10737 | 108.38112 | 32389 ft | 439 kts | 207° |
| 2026-05-07 12:16 | 34.04995 | 108.35667 | 32408 ft | 438 kts | 208° |
| 2026-05-07 12:16 | 33.99340 | 108.33242 | 32422 ft | 438 kts | 207° |
| 2026-05-07 12:17 | 33.94717 | 108.31260 | 32430 ft | 438 kts | 207° |
| 2026-05-07 12:17 | 33.88021 | 108.28411 | 32440 ft | 438 kts | 207° |
| 2026-05-07 12:18 | 33.84165 | 108.26786 | 32446 ft | 438 kts | 207° |
| 2026-05-07 12:18 | 33.77919 | 108.24157 | 32442 ft | 437 kts | 207° |
| 2026-05-07 12:19 | 33.72144 | 108.21721 | 32433 ft | 439 kts | 207° |
| 2026-05-07 12:19 | 33.67366 | 108.19701 | 32428 ft | 439 kts | 207° |
| 2026-05-07 12:20 | 33.61584 | 108.17255 | 32411 ft | 440 kts | 207° |
| 2026-05-07 12:20 | 33.55787 | 108.14816 | 32401 ft | 440 kts | 206° |
| 2026-05-07 12:21 | 33.50018 | 108.12395 | 32388 ft | 440 kts | 206° |
| 2026-05-07 12:21 | 33.44231 | 108.09966 | 32379 ft | 439 kts | 206° |
| 2026-05-07 12:22 | 33.38411 | 108.07707 | 32378 ft | 443 kts | 204° |
| 2026-05-07 12:22 | 33.32484 | 108.05572 | 32369 ft | 443 kts | 204° |
| 2026-05-07 12:23 | 33.26606 | 108.03464 | 32363 ft | 443 kts | 204° |
| 2026-05-07 12:23 | 33.20697 | 108.01354 | 32362 ft | 442 kts | 204° |
| 2026-05-07 12:24 | 33.14794 | 107.99248 | 32354 ft | 443 kts | 204° |
| 2026-05-07 12:24 | 33.08869 | 107.97141 | 32354 ft | 443 kts | 204° |
| 2026-05-07 12:25 | 33.02975 | 107.95047 | 32347 ft | 443 kts | 204° |
| 2026-05-07 12:25 | 32.97083 | 107.92956 | 32345 ft | 443 kts | 204° |
| 2026-05-07 12:26 | 32.91168 | 107.90860 | 32340 ft | 444 kts | 204° |
| 2026-05-07 12:26 | 32.85331 | 107.88804 | 32333 ft | 443 kts | 204° |
| 2026-05-07 12:27 | 32.79445 | 107.86736 | 32331 ft | 444 kts | 204° |
| 2026-05-07 12:27 | 32.73541 | 107.84657 | 32335 ft | 444 kts | 203° |
| 2026-05-07 12:28 | 32.67602 | 107.82568 | 32337 ft | 443 kts | 204° |
| 2026-05-07 12:28 | 32.61687 | 107.80486 | 32332 ft | 445 kts | 204° |
| 2026-05-07 12:29 | 32.55758 | 107.78403 | 32326 ft | 444 kts | 204° |
| 2026-05-07 12:29 | 32.49814 | 107.76317 | 32319 ft | 444 kts | 204° |
| 2026-05-07 12:30 | 32.43911 | 107.74249 | 32312 ft | 445 kts | 204° |
| 2026-05-07 12:30 | 32.37936 | 107.72163 | 32297 ft | 445 kts | 204° |
| 2026-05-07 12:31 | 32.32019 | 107.70098 | 32295 ft | 446 kts | 204° |
| 2026-05-07 12:31 | 32.26126 | 107.67919 | 32291 ft | 442 kts | 207° |
| 2026-05-07 12:32 | 32.20491 | 107.65130 | 32292 ft | 438 kts | 212° |
| 2026-05-07 12:32 | 32.15178 | 107.61705 | 32297 ft | 434 kts | 218° |
| 2026-05-07 12:33 | 32.07836 | 107.55580 | 32296 ft | 429 kts | 223° |
| 2026-05-07 12:33 | 32.03043 | 107.51355 | 32288 ft | 430 kts | 223° |
| 2026-05-07 12:34 | 31.98266 | 107.47140 | 32272 ft | 430 kts | 223° |
| 2026-05-07 12:34 | 31.93491 | 107.42928 | 32266 ft | 430 kts | 223° |
| 2026-05-07 12:35 | 31.88765 | 107.38772 | 32266 ft | 430 kts | 223° |
| 2026-05-07 12:35 | 31.84083 | 107.34676 | 32271 ft | 431 kts | 222° |
| 2026-05-07 12:36 | 31.79119 | 107.30756 | 32244 ft | 436 kts | 217° |
| 2026-05-07 12:36 | 31.73842 | 107.27428 | 32237 ft | 440 kts | 212° |
| 2026-05-07 12:37 | 31.68222 | 107.24478 | 32228 ft | 441 kts | 210° |
| 2026-05-07 12:37 | 31.62594 | 107.21562 | 32241 ft | 441 kts | 210° |
| 2026-05-07 12:38 | 31.56969 | 107.18655 | 32239 ft | 441 kts | 210° |
| 2026-05-07 12:38 | 31.51392 | 107.15783 | 32245 ft | 441 kts | 210° |
| 2026-05-07 12:39 | 31.45749 | 107.12880 | 32238 ft | 441 kts | 210° |
| 2026-05-07 12:39 | 31.40129 | 107.09990 | 32232 ft | 441 kts | 210° |
| 2026-05-07 12:40 | 31.34520 | 107.07111 | 32232 ft | 440 kts | 210° |
| 2026-05-07 12:40 | 31.28905 | 107.04233 | 32226 ft | 441 kts | 210° |
| 2026-05-07 12:41 | 31.23285 | 107.01356 | 32235 ft | 440 kts | 210° |
| 2026-05-07 12:41 | 31.17699 | 106.98504 | 32226 ft | 440 kts | 210° |
| 2026-05-07 12:42 | 31.12102 | 106.95649 | 32217 ft | 439 kts | 210° |
| 2026-05-07 12:42 | 31.06510 | 106.92797 | 32222 ft | 440 kts | 210° |
| 2026-05-07 12:43 | 31.00898 | 106.89940 | 32212 ft | 440 kts | 210° |
| 2026-05-07 12:43 | 30.95283 | 106.87086 | 32209 ft | 440 kts | 210° |
| 2026-05-07 12:44 | 30.89897 | 106.84355 | 32206 ft | 439 kts | 210° |
| 2026-05-07 12:44 | 30.84503 | 106.81638 | 32208 ft | 438 kts | 210° |
| 2026-05-07 12:45 | 30.79032 | 106.78882 | 32206 ft | 438 kts | 210° |
| 2026-05-07 12:45 | 30.73444 | 106.76058 | 32206 ft | 437 kts | 211° |
| 2026-05-07 12:46 | 30.67615 | 106.73814 | 32202 ft | 451 kts | 197° |
| 2026-05-07 12:46 | 30.64454 | 106.73508 | 32204 ft | 462 kts | 188° |
| 2026-05-07 12:46 | 30.61233 | 106.73815 | 32183 ft | 474 kts | 178° |
| 2026-05-07 12:47 | 30.58006 | 106.74766 | 31841 ft | 486 kts | 168° |
| 2026-05-07 12:47 | 30.54910 | 106.76392 | 31239 ft | 494 kts | 157° |
| 2026-05-07 12:47 | 30.52080 | 106.78667 | 30504 ft | 502 kts | 146° |
| 2026-05-07 12:47 | 30.49464 | 106.81375 | 29819 ft | 501 kts | 143° |
| 2026-05-07 12:48 | 30.46927 | 106.84117 | 29162 ft | 503 kts | 143° |
| 2026-05-07 12:48 | 30.44367 | 106.86891 | 28412 ft | 503 kts | 142° |
| 2026-05-07 12:48 | 30.41823 | 106.89631 | 27622 ft | 503 kts | 143° |
| 2026-05-07 12:48 | 30.39237 | 106.92390 | 26744 ft | 503 kts | 142° |
| 2026-05-07 12:49 | 30.36677 | 106.95110 | 26106 ft | 497 kts | 142° |
| 2026-05-07 12:49 | 30.34161 | 106.97779 | 25555 ft | 490 kts | 142° |
| 2026-05-07 12:49 | 30.31685 | 107.00401 | 24980 ft | 484 kts | 142° |
| 2026-05-07 12:49 | 30.29213 | 107.03016 | 24392 ft | 478 kts | 142° |
| 2026-05-07 12:50 | 30.26785 | 107.05580 | 23824 ft | 473 kts | 141° |
| 2026-05-07 12:50 | 30.24338 | 107.08160 | 23249 ft | 469 kts | 141° |
| 2026-05-07 12:50 | 30.21955 | 107.10635 | 22677 ft | 463 kts | 144° |
| 2026-05-07 12:50 | 30.19232 | 107.12494 | 22060 ft | 449 kts | 164° |
| 2026-05-07 12:51 | 30.16217 | 107.13088 | 21458 ft | 434 kts | 185° |
| 2026-05-07 12:51 | 30.13324 | 107.12485 | 20861 ft | 422 kts | 203° |
| 2026-05-07 12:51 | 30.10759 | 107.10909 | 20277 ft | 412 kts | 218° |
| 2026-05-07 12:51 | 30.08476 | 107.08952 | 19712 ft | 408 kts | 219° |
| 2026-05-07 12:52 | 30.06204 | 107.07021 | 19147 ft | 405 kts | 218° |
| 2026-05-07 12:52 | 30.03944 | 107.05122 | 18588 ft | 401 kts | 218° |
| 2026-05-07 12:52 | 30.01704 | 107.03253 | 18029 ft | 398 kts | 218° |
| 2026-05-07 12:52 | 29.99471 | 107.01397 | 17452 ft | 396 kts | 218° |
| 2026-05-07 12:53 | 29.97235 | 106.99545 | 16868 ft | 394 kts | 217° |
| 2026-05-07 12:53 | 29.95027 | 106.97719 | 16293 ft | 390 kts | 217° |
| 2026-05-07 12:53 | 29.92822 | 106.95898 | 15731 ft | 387 kts | 217° |
| 2026-05-07 12:53 | 29.90626 | 106.94089 | 15158 ft | 384 kts | 216° |
| 2026-05-07 12:54 | 29.88546 | 106.92377 | 14598 ft | 381 kts | 215° |
| 2026-05-07 12:54 | 29.86636 | 106.90812 | 14112 ft | 378 kts | 216° |
| 2026-05-07 12:54 | 29.84586 | 106.89133 | 13602 ft | 375 kts | 215° |
| 2026-05-07 12:54 | 29.82448 | 106.87381 | 13035 ft | 373 kts | 216° |
| 2026-05-07 12:55 | 29.80357 | 106.85667 | 12475 ft | 371 kts | 215° |
| 2026-05-07 12:55 | 29.78250 | 106.83939 | 11944 ft | 368 kts | 215° |
| 2026-05-07 12:55 | 29.76190 | 106.82245 | 11387 ft | 366 kts | 216° |
| 2026-05-07 12:55 | 29.74119 | 106.80544 | 10894 ft | 362 kts | 216° |
| 2026-05-07 12:56 | 29.72058 | 106.78974 | 10691 ft | 348 kts | 210° |
| 2026-05-07 12:56 | 29.69926 | 106.77785 | 10508 ft | 334 kts | 201° |
| 2026-05-07 12:56 | 29.67767 | 106.76936 | 10368 ft | 320 kts | 197° |
| 2026-05-07 12:56 | 29.65656 | 106.76210 | 10238 ft | 307 kts | 196° |
| 2026-05-07 12:57 | 29.63647 | 106.75532 | 10138 ft | 294 kts | 196° |
| 2026-05-07 12:57 | 29.61725 | 106.74882 | 10049 ft | 282 kts | 197° |
| 2026-05-07 12:57 | 29.59850 | 106.74241 | 9698 ft | 281 kts | 197° |
| 2026-05-07 12:57 | 29.57973 | 106.73593 | 9365 ft | 279 kts | 197° |
| 2026-05-07 12:58 | 29.56123 | 106.72951 | 9042 ft | 276 kts | 197° |
| 2026-05-07 12:58 | 29.54301 | 106.72315 | 8713 ft | 274 kts | 196° |
| 2026-05-07 12:58 | 29.52473 | 106.71680 | 8392 ft | 272 kts | 196° |
| 2026-05-07 12:58 | 29.50660 | 106.71052 | 8074 ft | 271 kts | 195° |
| 2026-05-07 12:59 | 29.48859 | 106.70429 | 7755 ft | 270 kts | 195° |
| 2026-05-07 12:59 | 29.47073 | 106.69811 | 7441 ft | 269 kts | 195° |
| 2026-05-07 12:59 | 29.45271 | 106.69189 | 7124 ft | 268 kts | 194° |
| 2026-05-07 12:59 | 29.43502 | 106.68578 | 6929 ft | 260 kts | 194° |
| 2026-05-07 13:00 | 29.41822 | 106.67999 | 6885 ft | 246 kts | 194° |
| 2026-05-07 13:00 | 29.40236 | 106.67397 | 6825 ft | 238 kts | 205° |
| 2026-05-07 13:00 | 29.39054 | 106.66116 | 6737 ft | 240 kts | 244° |
| 2026-05-07 13:00 | 29.38817 | 106.64237 | 6563 ft | 242 kts | 284° |
| 2026-05-07 13:01 | 29.39643 | 106.62617 | 6288 ft | 237 kts | 325° |
| 2026-05-07 13:01 | 29.41083 | 106.61713 | 6070 ft | 238 kts | 337° |
| 2026-05-07 13:01 | 29.42565 | 106.60840 | 5826 ft | 239 kts | 333° |
| 2026-05-07 13:01 | 29.44005 | 106.59892 | 5576 ft | 237 kts | 332° |
| 2026-05-07 13:02 | 29.45398 | 106.58922 | 5334 ft | 234 kts | 331° |
| 2026-05-07 13:02 | 29.46831 | 106.58057 | 5053 ft | 228 kts | 351° |
| 2026-05-07 13:02 | 29.48342 | 106.58061 | 4957 ft | 210 kts | 16° |
| 2026-05-07 13:02 | 29.49708 | 106.58498 | 5031 ft | 193 kts | 21° |
| 2026-05-07 13:03 | 29.50938 | 106.58965 | 4963 ft | 178 kts | 22° |
| 2026-05-07 13:03 | 29.52053 | 106.59384 | 4922 ft | 160 kts | 22° |
| 2026-05-07 13:03 | 29.53084 | 106.59763 | 4937 ft | 151 kts | 23° |
| 2026-05-07 13:03 | 29.54066 | 106.60114 | 4779 ft | 146 kts | 22° |
| 2026-05-07 13:04 | 29.55031 | 106.60455 | 4596 ft | 145 kts | 22° |
| 2026-05-07 13:04 | 29.56006 | 106.60796 | 4405 ft | 144 kts | 22° |
| 2026-05-07 13:04 | 29.56957 | 106.61124 | 4220 ft | 144 kts | 22° |
| 2026-05-07 13:04 | 29.57916 | 106.61453 | 4040 ft | 143 kts | 22° |
| 2026-05-07 13:05 | 29.58877 | 106.61784 | 3850 ft | 143 kts | 22° |
| 2026-05-07 13:05 | 29.59824 | 106.62109 | 3662 ft | 142 kts | 22° |
| 2026-05-07 13:05 | 29.60780 | 106.62438 | 3474 ft | 142 kts | 23° |
| 2026-05-07 13:05 | 29.61723 | 106.62764 | 3288 ft | 142 kts | 22° |
| 2026-05-07 13:06 | 29.62667 | 106.63090 | 3107 ft | 141 kts | 23° |
| 2026-05-07 13:06 | 29.63578 | 106.63406 | 2935 ft | 140 kts | 24° |
| 2026-05-07 13:06 | 29.64509 | 106.63731 | 2755 ft | 140 kts | 22° |
| 2026-05-07 13:06 | 29.65450 | 106.64057 | 2568 ft | 140 kts | 24° |
| 2026-05-07 13:07 | 29.66382 | 106.64382 | 2399 ft | 140 kts | 23° |
| 2026-05-07 13:07 | 29.67320 | 106.64707 | 2228 ft | 139 kts | 23° |
| 2026-05-07 13:07 | 29.68247 | 106.65039 | 1994 ft | 137 kts | 25° |
| 2026-05-07 13:07 | 29.69165 | 106.65346 | 1897 ft | 139 kts | 22° |
| 2026-05-07 13:08 | 29.70098 | 106.65642 | 1735 ft | 140 kts | 25° |
| 2026-05-07 13:08 | 29.71017 | 106.65984 | 1493 ft | 135 kts | 25° |
| 2026-05-07 13:08 | 29.71904 | 106.66298 | 1383 ft | 127 kts | 20° |
| 2026-05-07 13:08 | 29.72630 | 106.66579 | 1372 ft | 85 kts | 11° |
| 2026-05-07 13:09 | 29.73040 | 106.66703 | 1372 ft | 36 kts | 17° |
| 2026-05-07 13:09 | 29.73185 | 106.66738 | 1372 ft | 17 kts | 6° |
| 2026-05-07 13:09 | 29.73303 | 106.66730 | 1372 ft | 16 kts | 353° |
| 2026-05-07 13:09 | 29.73415 | 106.66712 | 1372 ft | 15 kts | 352° |
| 2026-05-07 13:10 | 29.73523 | 106.66692 | 1372 ft | 15 kts | 352° |
| 2026-05-07 13:10 | 29.73597 | 106.66631 | 1372 ft | 13 kts | 289° |
| 2026-05-07 13:10 | 29.73637 | 106.66530 | 1372 ft | 14 kts | 322° |
| 2026-05-07 13:10 | 29.73730 | 106.66537 | 1372 ft | 13 kts | 18° |
| 2026-05-07 13:11 | 29.73771 | 106.66553 | 1372 ft | 1 kts | 13° |
| 2026-05-07 13:11 | 29.73786 | 106.66553 | 1372 ft | 2 kts | 348° |
| 2026-05-07 13:11 | 29.73807 | 106.66535 | 1372 ft | 4 kts | 304° |
| 2026-05-07 13:11 | 29.73820 | 106.66498 | 1372 ft | 4 kts | 288° |
| 2026-05-07 13:12 | 29.73826 | 106.66478 | 1372 ft | 0 kts | 288° |